^^
Meteo Knjazevac Station Historical Data
 
Daily Summary for February 03, 2023 Units:  Metric    English   Both
Daily Weekly Monthly Yearly Custom
  Current: High: Low: Average:
Temperature: 2.6 °C 3.4 °C 2.6 °C 3.1 °C
Dew Point: 1.5 °C 2 °C 1.5 °C 1.7 °C
Humidity: 93% 94% 88% 91%
Wind Speed: 6.6km/h 19.8km/h 4.7km/h 12.6km/h
Wind Gust: 19.3km/h 24.1km/h - -
WindWSW - - SW
Pressure: 1021.2 hPa 1021.2 hPa 1019.5 hPa -
Precipitation: 0 mm      
Historical Graphs
 
 
Tabular Data for February 03, 2023
Time Temperature Dew Point Pressure Wind Wind Speed Wind Gust Humidity Rainfall Rate (Hourly) solar Conditions
00:04 2.9 °C 1.5 °C 1019.5 hPa SSW 5.1 km/h 6.4 km/h 90.5% 0 mm 0 W/m2
00:09 2.9 °C 1.6 °C 1019.5 hPa East 6.3 km/h 6.4 km/h 91% 0 mm 0 W/m2
00:14 2.9 °C 1.6 °C 1019.5 hPa East 5.3 km/h 8 km/h 91% 0 mm 0 W/m2
00:19 2.9 °C 1.6 °C 1019.5 hPa East 7.4 km/h 8 km/h 91% 0 mm 0 W/m2
00:24 2.9 °C 1.7 °C 1019.5 hPa East 9.7 km/h 9.7 km/h 91.8% 0 mm 0 W/m2
00:29 2.9 °C 1.8 °C 1019.9 hPa East 13.4 km/h 12.9 km/h 92.6% 0 mm 0 W/m2
00:34 3 °C 1.7 °C 1019.9 hPa East 11.9 km/h 14.5 km/h 90.9% 0 mm 0 W/m2
00:39 3 °C 1.6 °C 1019.9 hPa East 8 km/h 17.7 km/h 90.2% 0 mm 0 W/m2
00:44 3.1 °C 1.6 °C 1019.9 hPa ESE 7.4 km/h 12.9 km/h 90.1% 0 mm 0 W/m2
00:49 3.1 °C 1.6 °C 1019.9 hPa SE 10.5 km/h 11.1 km/h 90% 0 mm 0 W/m2
00:54 3.1 °C 1.6 °C 1019.9 hPa SE 10.6 km/h 17.7 km/h 89.8% 0 mm 0 W/m2
00:59 3.1 °C 1.6 °C 1019.9 hPa South 10.1 km/h 11.3 km/h 90% 0 mm 0 W/m2
01:04 3.1 °C 1.6 °C 1019.9 hPa WSW 13.4 km/h 14.5 km/h 90% 0 mm 0 W/m2
01:09 3 °C 1.5 °C 1019.9 hPa WSW 10.5 km/h 14.5 km/h 90% 0 mm 0 W/m2
01:14 3 °C 1.5 °C 1019.9 hPa WSW 7.4 km/h 12.9 km/h 90% 0 mm 0 W/m2
01:19 3 °C 1.5 °C 1019.9 hPa WSW 4.7 km/h 8 km/h 90% 0 mm 0 W/m2
01:24 3 °C 1.5 °C 1019.9 hPa West 6.4 km/h 10.5 km/h 90% 0 mm 0 W/m2
01:29 3 °C 1.5 °C 1019.9 hPa SSE 14.3 km/h 14.5 km/h 90% 0 mm 0 W/m2
01:34 3 °C 1.6 °C 1020.2 hPa East 9.5 km/h 16.1 km/h 90.2% 0 mm 0 W/m2
01:39 3 °C 1.5 °C 1020.5 hPa NW 4.7 km/h 14.5 km/h 90% 0 mm 0 W/m2
01:44 3 °C 1.5 °C 1020.2 hPa WSW 16.6 km/h 11.9 km/h 89.9% 0 mm 0 W/m2
01:49 3.2 °C 1.6 °C 1020.2 hPa SW 11.4 km/h 19.3 km/h 89.1% 0 mm 0 W/m2
01:54 3.2 °C 1.6 °C 1019.9 hPa SW 11.1 km/h 14.5 km/h 89% 0 mm 0 W/m2
01:59 3.2 °C 1.6 °C 1019.9 hPa SW 10 km/h 12.9 km/h 89% 0 mm 0 W/m2
02:04 3.2 °C 1.5 °C 1020.2 hPa SW 10.9 km/h 11.3 km/h 89% 0 mm 0 W/m2
02:09 3.2 °C 1.5 °C 1020.2 hPa WSW 12.7 km/h 12.9 km/h 88.6% 0 mm 0 W/m2
02:14 3.3 °C 1.5 °C 1020.5 hPa WSW 11.1 km/h 16.1 km/h 88% 0 mm 0 W/m2
02:19 3.4 °C 1.6 °C 1020.5 hPa WSW 11.7 km/h 14.5 km/h 88% 0 mm 0 W/m2
02:24 3.4 °C 1.6 °C 1020.5 hPa SW 7.7 km/h 14.5 km/h 88% 0 mm 0 W/m2
02:29 3.4 °C 1.6 °C 1020.5 hPa SW 13.7 km/h 11.3 km/h 88% 0 mm 0 W/m2
02:34 3.4 °C 1.8 °C 1020.5 hPa WSW 13.2 km/h 16.1 km/h 88.9% 0 mm 0 W/m2
02:39 3.3 °C 1.7 °C 1020.5 hPa WSW 15.4 km/h 16.1 km/h 89% 0 mm 0 W/m2
02:44 3.3 °C 1.7 °C 1020.5 hPa WSW 16.4 km/h 16.1 km/h 89% 0 mm 0 W/m2
02:49 3.4 °C 1.8 °C 1020.5 hPa WSW 12.2 km/h 19.3 km/h 89% 0 mm 0 W/m2
02:54 3.4 °C 1.8 °C 1020.5 hPa SW 9.8 km/h 12.9 km/h 89% 0 mm 0 W/m2
02:59 3.3 °C 1.7 °C 1020.5 hPa SW 14.6 km/h 14 km/h 89% 0 mm 0 W/m2
03:04 3.3 °C 1.7 °C 1020.5 hPa SW 14 km/h 19.3 km/h 89% 0 mm 0 W/m2
03:09 3.4 °C 1.8 °C 1020.5 hPa SW 10.6 km/h 12.9 km/h 89% 0 mm 0 W/m2
03:14 3.4 °C 1.8 °C 1020.5 hPa SW 16.9 km/h 14 km/h 89.1% 0 mm 0 W/m2
03:19 3.3 °C 1.8 °C 1020.5 hPa SW 19.6 km/h 20.9 km/h 89.9% 0 mm 0 W/m2
03:24 3.3 °C 1.8 °C 1020.5 hPa WSW 18 km/h 22.5 km/h 90.1% 0 mm 0 W/m2
03:29 3.2 °C 1.9 °C 1020.5 hPa WSW 14.6 km/h 19.3 km/h 90.9% 0 mm 0 W/m2
03:34 3.1 °C 1.8 °C 1020.5 hPa WSW 18 km/h 20.9 km/h 91% 0 mm 0 W/m2
03:39 3.1 °C 1.8 °C 1020.5 hPa WSW 19.8 km/h 20.9 km/h 91.2% 0 mm 0 W/m2
03:44 3 °C 2 °C 1020.5 hPa WSW 17.4 km/h 22.5 km/h 92.9% 0 mm 0 W/m2
03:49 2.9 °C 1.9 °C 1020.9 hPa WSW 19.3 km/h 22.5 km/h 93% 0 mm 0 W/m2
03:54 2.8 °C 1.8 °C 1020.9 hPa WSW 14.8 km/h 20.9 km/h 93% 0 mm 0 W/m2
03:59 2.7 °C 1.8 °C 1020.9 hPa WSW 15.3 km/h 16.1 km/h 93.7% 0 mm 0 W/m2
04:04 2.7 °C 1.8 °C 1020.9 hPa WSW 16.1 km/h 17.7 km/h 94% 0 mm 0 W/m2
04:09 2.6 °C 1.7 °C 1020.9 hPa WSW 17.4 km/h 24.1 km/h 94% 0 mm 0 W/m2
04:14 2.6 °C 1.7 °C 1020.9 hPa WSW 17.1 km/h 20.9 km/h 94% 0 mm 0 W/m2
04:19 2.6 °C 1.7 °C 1021.2 hPa WSW 14.6 km/h 19.3 km/h 94% 0 mm 0 W/m2
04:24 2.6 °C 1.7 °C 1021.2 hPa WSW 12.4 km/h 16.1 km/h 94% 0 mm 0 W/m2
04:29 2.6 °C 1.7 °C 1021.2 hPa WSW 18 km/h 12.9 km/h 94% 0 mm 0 W/m2
04:34 2.6 °C 1.7 °C 1021.2 hPa WSW 18.8 km/h 24.1 km/h 94% 0 mm 0 W/m2
04:39 2.6 °C 1.7 °C 1021.2 hPa West 15.4 km/h 22.5 km/h 94% 0 mm 0 W/m2
04:44 2.6 °C 1.7 °C 1021.2 hPa West 16.7 km/h 20.9 km/h 93.7% 0 mm 0 W/m2
04:49 2.6 °C 1.6 °C 1021.2 hPa West 14 km/h 19.3 km/h 93% 0 mm 0 W/m2
04:54 2.6 °C 1.5 °C 1021.2 hPa WSW 6.6 km/h 19.3 km/h 93% 0 mm 0 W/m2
Knjazevac, Serbia
Compliments of Weather Underground - 2 mb